Time;durP1;ratioP1;P1;durP2;ratioP2;P2;SDS_P1;SDS_P2;PMS_P1;PMS_P2;Temp;Humidity;BMP_temperature;BMP_pressure;BME280_temperature;BME280_humidity;BME280_pressure;Samples;Min_cycle;Max_cycle;Signal;HPM_P1;HPM_P2
2021/01/06 00:00:42;;;;;;;13.80;8.63;;;;;;;0.92;82.81;95963.95;1702470;83;21174;-83
2021/01/06 00:03:11;;;;;;;12.93;8.48;;;;;;;0.93;82.68;95966.38;1713926;83;21149;-82
2021/01/06 00:05:37;;;;;;;11.97;9.38;;;;;;;0.96;82.52;95973.77;1706740;82;21137;-82
2021/01/06 00:08:05;;;;;;;14.10;10.03;;;;;;;0.96;82.30;95971.22;1719374;82;21145;-82
2021/01/06 00:10:30;;;;;;;12.75;9.90;;;;;;;0.90;82.00;95971.28;1715064;83;21309;-82
2021/01/06 00:12:57;;;;;;;13.10;9.18;;;;;;;0.87;82.18;95968.19;1702966;82;21251;-83
2021/01/06 00:15:29;;;;;;;12.68;9.13;;;;;;;0.83;82.18;95971.95;1718887;82;21155;-82
2021/01/06 00:17:55;;;;;;;12.63;8.35;;;;;;;0.78;82.07;95965.94;1727444;81;21215;-83
2021/01/06 00:20:23;;;;;;;12.18;8.50;;;;;;;0.73;81.91;95969.37;1726539;82;21147;-82
2021/01/06 00:22:49;;;;;;;13.50;8.55;;;;;;;0.71;81.99;95978.11;1712876;82;21184;-83
2021/01/06 00:25:24;;;;;;;13.40;8.10;;;;;;;0.69;81.95;95971.05;1729026;82;21145;-83
2021/01/06 00:27:50;;;;;;;14.07;9.35;;;;;;;0.66;81.95;95974.68;1730774;81;21135;-83
2021/01/06 00:30:40;;;;;;;11.97;8.60;;;;;;;0.63;81.97;95972.36;1736255;82;21133;-83
2021/01/06 00:33:10;;;;;;;12.80;8.93;;;;;;;0.59;81.97;95969.26;1727830;81;21111;-81
2021/01/06 00:35:36;;;;;;;11.50;8.83;;;;;;;0.56;81.79;95975.92;1724782;81;21119;-82
2021/01/06 00:38:03;;;;;;;12.98;9.05;;;;;;;0.54;81.82;95975.23;1728490;81;21135;-81
2021/01/06 00:40:33;;;;;;;11.75;8.55;;;;;;;0.49;81.71;95972.74;1733205;81;21145;-81
2021/01/06 00:43:04;;;;;;;12.20;8.25;;;;;;;0.42;81.66;95980.10;1715487;83;21107;-81
2021/01/06 00:45:31;;;;;;;10.60;7.27;;;;;;;0.38;81.59;95977.94;1711595;83;21137;-81
2021/01/06 00:47:57;;;;;;;10.72;7.87;;;;;;;0.33;81.60;95978.80;1720919;83;21163;-81
2021/01/06 00:50:27;;;;;;;12.20;9.45;;;;;;;0.29;81.68;95981.59;1730192;83;21138;-81
2021/01/06 00:53:06;;;;;;;8.98;7.08;;;;;;;0.26;81.76;95991.27;1735322;82;21856;-82
2021/01/06 00:55:32;;;;;;;9.78;7.40;;;;;;;0.23;81.86;95995.36;1729373;82;21248;-81
2021/01/06 00:57:58;;;;;;;14.25;7.72;;;;;;;0.23;81.94;96003.03;1739888;82;21095;-82
2021/01/06 01:00:28;;;;;;;11.22;7.87;;;;;;;0.23;82.04;95998.72;1728604;82;21261;-83
2021/01/06 01:02:55;;;;;;;8.68;7.55;;;;;;;0.27;82.18;96009.02;1713755;82;21268;-82
2021/01/06 01:05:29;;;;;;;9.85;7.30;;;;;;;0.29;82.34;96008.42;1690956;83;21142;-83
2021/01/06 01:07:56;;;;;;;10.63;7.72;;;;;;;0.33;82.45;96009.47;1700269;83;21775;-82
2021/01/06 01:10:39;;;;;;;10.23;6.87;;;;;;;0.35;82.46;96004.56;1716232;82;21321;-82
2021/01/06 01:13:22;;;;;;;8.80;6.72;;;;;;;0.39;82.46;96004.64;1710610;83;21422;-82
2021/01/06 01:15:51;;;;;;;10.68;7.78;;;;;;;0.44;82.47;96004.25;1711570;83;21121;-82
2021/01/06 01:18:20;;;;;;;11.30;7.90;;;;;;;0.44;82.51;96001.23;1712704;83;21113;-82
2021/01/06 01:20:49;;;;;;;10.82;7.85;;;;;;;0.46;82.56;95996.79;1710087;83;21133;-83
2021/01/06 01:23:16;;;;;;;9.63;7.00;;;;;;;0.46;82.54;95994.70;1708639;83;21148;-83
2021/01/06 01:25:43;;;;;;;10.28;7.72;;;;;;;0.47;82.57;95990.73;1716015;83;21331;-82
2021/01/06 01:28:11;;;;;;;8.35;7.12;;;;;;;0.51;82.67;95990.84;1711405;83;21106;-82
2021/01/06 01:30:38;;;;;;;9.98;8.03;;;;;;;0.55;82.65;95995.22;1711008;83;21156;-83
2021/01/06 01:33:04;;;;;;;11.10;7.37;;;;;;;0.56;82.75;95987.42;1712947;83;21257;-82
2021/01/06 01:35:32;;;;;;;10.95;7.10;;;;;;;0.56;82.76;95982.78;1712044;83;21253;-82
2021/01/06 01:37:59;;;;;;;11.03;7.42;;;;;;;0.60;82.79;95976.45;1713479;83;21150;-83
2021/01/06 01:40:30;;;;;;;12.15;8.53;;;;;;;0.57;82.73;95974.17;1712232;83;21235;-82
2021/01/06 01:43:09;;;;;;;11.18;7.80;;;;;;;0.62;82.77;95967.38;1728747;81;21110;-83
2021/01/06 01:45:52;;;;;;;11.40;8.25;;;;;;;0.63;82.81;95967.71;1740581;81;21123;-82
2021/01/06 01:48:37;;;;;;;11.28;7.90;;;;;;;0.61;82.86;95966.56;1745774;81;21183;-82
2021/01/06 01:51:15;;;;;;;11.40;8.35;;;;;;;0.63;83.00;95963.88;1723000;81;21117;-81
2021/01/06 01:54:00;;;;;;;9.58;7.92;;;;;;;0.71;82.94;95970.44;1736764;81;21132;-81
2021/01/06 01:56:23;;;;;;;11.38;8.88;;;;;;;0.75;82.83;95965.39;1738809;81;21118;-82
2021/01/06 01:58:50;;;;;;;13.83;11.50;;;;;;;0.76;82.85;95970.84;1736612;81;21122;-82
2021/01/06 02:01:16;;;;;;;15.10;10.15;;;;;;;0.80;83.00;95968.36;1733975;82;21263;-81
2021/01/06 02:03:46;;;;;;;19.35;11.25;;;;;;;0.84;82.96;95973.58;1705747;83;21126;-82
2021/01/06 02:06:20;;;;;;;10.30;7.15;;;;;;;0.84;82.88;95973.10;1726493;81;21153;-82
2021/01/06 02:09:20;;;;;;;8.70;7.05;;;;;;;0.85;82.83;95976.47;1737452;81;21130;-81
2021/01/06 02:11:49;;;;;;;11.12;6.85;;;;;;;0.86;82.72;95978.89;1728337;82;21133;-82
2021/01/06 02:14:25;;;;;;;8.35;7.00;;;;;;;0.85;82.79;95968.32;1732655;82;21270;-84
2021/01/06 02:17:04;;;;;;;8.83;6.20;;;;;;;0.86;82.98;95968.66;1684316;82;21267;-81
2021/01/06 02:19:37;;;;;;;7.95;6.22;;;;;;;0.87;82.98;95970.28;1710522;83;21142;-81
2021/01/06 02:22:05;;;;;;;;;;;;;;;0.87;82.97;95969.00;1738502;81;21123;-82
2021/01/06 02:24:33;;;;;;;6.65;5.50;;;;;;;0.92;83.03;95971.15;1735291;82;20158;-82
2021/01/06 02:26:59;;;;;;;7.05;5.37;;;;;;;0.93;83.03;95973.23;1737889;82;21130;-82
2021/01/06 02:29:25;;;;;;;6.83;6.12;;;;;;;0.94;83.12;95968.45;1729854;82;21220;-82
2021/01/06 02:31:52;;;;;;;6.78;5.55;;;;;;;0.94;83.21;95969.27;1728262;82;21138;-82
2021/01/06 02:34:19;;;;;;;7.60;5.67;;;;;;;0.91;83.26;95965.70;1714965;81;21236;-82
2021/01/06 02:36:45;;;;;;;7.85;6.12;;;;;;;0.96;83.29;95964.02;1715756;82;21126;-81
2021/01/06 02:39:12;;;;;;;7.05;5.67;;;;;;;0.97;83.35;95962.59;1742076;81;21121;-81
2021/01/06 02:41:38;;;;;;;8.75;6.33;;;;;;;1.01;83.33;95958.86;1706922;82;21500;-82
2021/01/06 02:44:05;;;;;;;8.23;6.03;;;;;;;1.05;83.30;95956.36;1701626;83;21434;-81
2021/01/06 02:46:31;;;;;;;7.30;5.70;;;;;;;1.07;83.40;95959.59;1712844;83;21280;-82
2021/01/06 02:48:57;;;;;;;8.43;5.92;;;;;;;1.09;83.40;95956.42;1696159;83;21607;-81
2021/01/06 02:51:41;;;;;;;8.73;6.92;;;;;;;1.11;83.43;95951.98;1705271;83;21278;-83
2021/01/06 02:54:10;;;;;;;7.20;6.15;;;;;;;1.14;83.60;95956.85;1674020;84;21203;-82
2021/01/06 02:56:36;;;;;;;8.75;6.35;;;;;;;1.18;83.34;95954.83;1704071;83;21252;-82
2021/01/06 02:59:04;;;;;;;7.90;5.78;;;;;;;1.19;83.30;95954.69;1682895;84;21634;-81
2021/01/06 03:01:33;;;;;;;9.08;6.60;;;;;;;1.22;83.27;95956.17;1718865;82;21165;-81
2021/01/06 03:03:59;;;;;;;7.95;6.33;;;;;;;1.24;83.29;95953.00;1717663;82;21124;-81
2021/01/06 03:06:40;;;;;;;7.28;6.12;;;;;;;1.29;83.50;95950.03;1718956;82;21122;-81
2021/01/06 03:09:09;;;;;;;8.60;7.45;;;;;;;1.25;83.33;95952.53;1710156;82;21486;-82
2021/01/06 03:11:35;;;;;;;7.90;7.10;;;;;;;1.16;83.37;95952.88;1715419;82;21109;-81
2021/01/06 03:14:01;;;;;;;7.03;5.15;;;;;;;1.15;83.38;95952.55;1715001;82;22302;-82
2021/01/06 03:16:27;;;;;;;7.53;6.00;;;;;;;1.16;83.37;95946.01;1716948;82;21249;-81
2021/01/06 03:18:54;;;;;;;8.95;5.97;;;;;;;1.18;83.39;95947.95;1721250;82;21137;-82
2021/01/06 03:21:20;;;;;;;7.50;6.12;;;;;;;1.19;83.37;95945.73;1714381;82;21403;-82
2021/01/06 03:23:49;;;;;;;8.85;7.30;;;;;;;1.20;83.44;95944.79;1718543;82;21113;-82
2021/01/06 03:26:20;;;;;;;7.95;6.45;;;;;;;1.19;83.47;95944.92;1709221;82;21269;-82
2021/01/06 03:28:46;;;;;;;9.78;6.90;;;;;;;1.18;83.59;95942.84;1713435;82;21378;-82
2021/01/06 03:31:16;;;;;;;9.10;6.45;;;;;;;1.22;83.67;95934.41;1716250;82;21129;-81
2021/01/06 03:33:50;;;;;;;9.08;6.83;;;;;;;1.17;83.61;95920.75;1714791;82;21149;-82
2021/01/06 03:36:21;;;;;;;7.67;6.00;;;;;;;1.31;83.53;95939.20;1693012;83;22112;-82
2021/01/06 03:38:59;;;;;;;7.43;5.67;;;;;;;1.32;83.47;95939.55;1674977;84;21146;-82
2021/01/06 03:41:26;;;;;;;6.72;5.97;;;;;;;1.31;83.58;95938.73;1675118;83;21495;-82
2021/01/06 03:43:57;;;;;;;8.00;6.53;;;;;;;1.31;83.61;95934.09;1719779;82;21098;-82
2021/01/06 03:46:30;;;;;;;5.80;5.20;;;;;;;1.30;83.59;95942.24;1697071;83;21131;-82
2021/01/06 03:49:07;;;;;;;6.60;5.90;;;;;;;1.29;83.52;95943.16;1683519;82;21370;-81
2021/01/06 03:51:40;;;;;;;6.15;5.55;;;;;;;1.29;83.45;95941.07;1685179;82;21100;-82
2021/01/06 03:54:48;;;;;;;6.62;5.35;;;;;;;1.30;83.42;95936.28;1728970;82;21128;-82
2021/01/06 03:57:14;;;;;;;7.30;6.53;;;;;;;1.29;83.41;95925.23;1719977;81;21154;-82
2021/01/06 03:59:41;;;;;;;6.78;6.08;;;;;;;1.27;83.41;95930.97;1710843;82;21133;-81
2021/01/06 04:02:21;;;;;;;8.80;6.40;;;;;;;1.23;83.32;95920.67;1698182;82;21125;-82
2021/01/06 04:05:09;;;;;;;8.75;6.00;;;;;;;1.19;83.32;95927.02;1723967;82;21551;-82
2021/01/06 04:07:45;;;;;;;8.05;6.37;;;;;;;1.17;83.21;95919.47;1722924;82;21136;-82
2021/01/06 04:10:18;;;;;;;6.08;5.47;;;;;;;1.16;83.04;95920.89;1732701;82;21168;-82
2021/01/06 04:12:44;;;;;;;6.92;5.75;;;;;;;1.11;82.87;95925.11;1722087;82;21143;-82
2021/01/06 04:15:12;;;;;;;6.92;5.40;;;;;;;1.02;82.88;95921.29;1738738;81;21165;-82
2021/01/06 04:17:40;;;;;;;7.00;5.65;;;;;;;1.05;82.99;95932.53;1728524;82;21130;-82
2021/01/06 04:20:33;;;;;;;6.80;6.03;;;;;;;1.02;82.95;95934.89;1735710;81;21131;-82
2021/01/06 04:23:09;;;;;;;8.83;5.92;;;;;;;0.98;82.84;95931.46;1736362;82;21126;-82
2021/01/06 04:25:39;;;;;;;6.67;5.97;;;;;;;0.96;82.80;95931.56;1732460;82;21144;-82
2021/01/06 04:28:16;;;;;;;7.50;6.30;;;;;;;0.97;82.71;95938.30;1729916;81;21296;-82
2021/01/06 04:30:58;;;;;;;7.10;6.37;;;;;;;0.97;82.77;95937.02;1743211;81;21144;-82
2021/01/06 04:33:37;;;;;;;6.60;5.92;;;;;;;0.96;82.73;95934.12;1737622;81;21104;-82
2021/01/06 04:36:08;;;;;;;7.22;6.53;;;;;;;0.92;82.67;95935.34;1705031;81;21121;-82
2021/01/06 04:38:39;;;;;;;5.92;5.33;;;;;;;0.88;82.79;95928.88;1740868;81;21375;-81
2021/01/06 04:41:38;;;;;;;5.53;4.63;;;;;;;0.93;82.80;95933.11;1737347;81;21239;-85
2021/01/06 04:44:50;;;;;;;8.25;5.72;;;;;;;0.93;82.65;95928.47;1740011;81;21161;-82
2021/01/06 04:47:50;;;;;;;6.30;5.47;;;;;;;0.89;82.50;95936.41;1730958;82;21170;-83
2021/01/06 04:51:14;;;;;;;6.53;5.30;;;;;;;0.82;82.60;95939.18;1731574;82;21133;-81
2021/01/06 04:54:07;;;;;;;6.22;5.28;;;;;;;0.75;82.53;95944.47;1734843;82;21120;-82
2021/01/06 04:56:45;;;;;;;7.17;5.55;;;;;;;0.74;82.68;95936.45;1733082;82;21122;-82
2021/01/06 04:59:55;;;;;;;7.20;5.72;;;;;;;0.77;82.64;95932.83;1735044;81;21117;-82
2021/01/06 05:02:32;;;;;;;7.67;5.85;;;;;;;0.72;82.53;95917.89;1732792;82;21187;-82
2021/01/06 05:05:39;;;;;;;6.62;5.47;;;;;;;0.65;82.37;95931.31;1734834;82;21273;-81
2021/01/06 05:08:31;;;;;;;6.42;5.55;;;;;;;0.55;82.28;95935.14;1718628;82;21249;-81
2021/01/06 05:11:29;;;;;;;6.67;5.30;;;;;;;0.47;82.12;95933.23;1731559;82;21125;-82
2021/01/06 05:14:08;;;;;;;6.33;5.47;;;;;;;0.38;82.11;95928.10;1729073;82;21577;-81
2021/01/06 05:16:39;;;;;;;5.67;4.90;;;;;;;0.32;81.97;95933.24;1734400;82;21148;-81
2021/01/06 05:19:24;;;;;;;7.05;6.35;;;;;;;0.20;82.03;95933.02;1731014;82;21140;-81
2021/01/06 05:21:51;;;;;;;6.72;5.45;;;;;;;0.13;82.05;95932.70;1734839;82;21130;-81
2021/01/06 05:24:37;;;;;;;6.25;5.35;;;;;;;0.07;81.88;95943.92;1731085;82;21132;-81
2021/01/06 05:27:24;;;;;;;6.30;5.15;;;;;;;0.01;81.95;95931.67;1700533;83;21130;-81
2021/01/06 05:29:58;;;;;;;7.03;5.80;;;;;;;-0.09;81.93;95931.14;1732614;82;21050;-82
2021/01/06 05:32:37;;;;;;;6.97;5.25;;;;;;;-0.15;81.97;95932.94;1732393;81;21116;-81
2021/01/06 05:35:12;;;;;;;6.22;5.62;;;;;;;-0.18;82.04;95939.55;1730916;82;21106;-81
2021/01/06 05:37:39;;;;;;;5.80;5.30;;;;;;;-0.19;82.13;95935.84;1732958;82;21553;-81
2021/01/06 05:40:10;;;;;;;6.97;5.62;;;;;;;-0.23;82.22;95933.22;1717139;82;21180;-81
2021/01/06 05:42:52;;;;;;;5.67;5.05;;;;;;;-0.28;82.13;95937.90;1723261;82;21304;-82
2021/01/06 05:45:28;;;;;;;6.60;5.75;;;;;;;-0.34;82.04;95933.61;1717862;82;21332;-81
2021/01/06 05:48:02;;;;;;;6.00;5.40;;;;;;;-0.39;82.12;95922.17;1716027;82;21268;-81
2021/01/06 05:50:37;;;;;;;8.25;5.85;;;;;;;-0.43;82.10;95919.53;1712669;83;21283;-81
2021/01/06 05:53:24;;;;;;;6.67;5.17;;;;;;;-0.49;82.12;95922.57;1720303;83;21113;-81
2021/01/06 05:55:51;;;;;;;6.65;5.40;;;;;;;-0.51;82.15;95928.27;1718537;83;21125;-81
2021/01/06 05:58:31;;;;;;;7.58;5.97;;;;;;;-0.54;82.20;95929.33;1713373;83;21292;-81
2021/01/06 06:01:14;;;;;;;7.92;6.12;;;;;;;-0.56;82.35;95922.27;1710875;83;21134;-81
2021/01/06 06:04:06;;;;;;;7.37;5.97;;;;;;;-0.56;82.42;95914.61;1681843;83;21712;-81
2021/01/06 06:07:07;;;;;;;8.55;6.95;;;;;;;-0.59;82.25;95905.94;1715978;83;21137;-81
2021/01/06 06:09:54;;;;;;;6.85;5.80;;;;;;;-0.61;82.24;95907.81;1714859;83;21240;-81
2021/01/06 06:12:59;;;;;;;7.08;6.37;;;;;;;-0.64;82.32;95902.49;1682178;83;21393;-81
2021/01/06 06:15:45;;;;;;;5.78;4.95;;;;;;;-0.66;82.35;95900.50;1636554;86;21355;-81
2021/01/06 06:18:44;;;;;;;6.25;5.40;;;;;;;-0.68;82.44;95899.02;1625546;87;21170;-81
2021/01/06 06:21:42;;;;;;;6.95;5.85;;;;;;;-0.67;82.53;95898.08;1701633;84;21139;-80
2021/01/06 06:24:34;;;;;;;6.25;5.65;;;;;;;-0.66;82.73;95894.59;1660782;84;21149;-81
2021/01/06 06:27:32;;;;;;;5.78;5.17;;;;;;;-0.66;82.93;95906.88;1703276;83;21179;-81
2021/01/06 06:30:15;;;;;;;6.58;5.72;;;;;;;-0.64;83.09;95897.39;1689487;83;21154;-81
2021/01/06 06:32:43;;;;;;;5.62;4.72;;;;;;;-0.62;83.11;95898.53;1701288;83;21244;-82
2021/01/06 06:35:20;;;;;;;7.22;5.28;;;;;;;-0.58;83.33;95899.90;1663606;84;21359;-81
2021/01/06 06:38:00;;;;;;;6.85;5.47;;;;;;;-0.51;83.46;95905.30;1704372;84;21144;-81
2021/01/06 06:40:47;;;;;;;5.87;5.20;;;;;;;-0.46;83.42;95909.58;1688609;83;21351;-81
2021/01/06 06:43:40;;;;;;;7.85;5.30;;;;;;;-0.39;83.50;95908.94;1698509;83;21268;-81
2021/01/06 06:46:28;;;;;;;6.65;5.45;;;;;;;-0.29;83.50;95911.56;1691081;83;21368;-81
2021/01/06 06:49:16;;;;;;;6.80;5.47;;;;;;;-0.27;83.40;95912.70;1704652;83;21689;-81
2021/01/06 06:52:05;;;;;;;6.20;5.55;;;;;;;-0.24;83.49;95916.28;1698969;84;21265;-81
2021/01/06 06:55:01;;;;;;;5.60;5.10;;;;;;;-0.20;83.42;95913.34;1681771;84;21289;-81
2021/01/06 06:57:39;;;;;;;6.97;5.78;;;;;;;-0.15;83.35;95916.81;1697830;83;21118;-81
2021/01/06 07:00:17;;;;;;;7.95;6.15;;;;;;;-0.14;83.43;95917.15;1695926;83;21100;-83
2021/01/06 07:03:00;;;;;;;5.17;4.67;;;;;;;-0.10;83.46;95914.20;1698934;83;21335;-84
2021/01/06 07:05:46;;;;;;;5.65;4.87;;;;;;;-0.04;83.43;95913.68;1695478;83;21115;-83
2021/01/06 07:08:20;;;;;;;6.33;5.33;;;;;;;0.03;83.49;95914.47;1696247;84;21145;-82
2021/01/06 07:10:56;;;;;;;5.42;4.90;;;;;;;0.13;83.67;95917.84;1703800;83;21159;-83
2021/01/06 07:13:22;;;;;;;6.08;5.47;;;;;;;0.18;83.68;95913.19;1703379;83;21126;-82
2021/01/06 07:15:52;;;;;;;6.08;4.92;;;;;;;0.21;83.58;95920.58;1701530;84;21150;-83
2021/01/06 07:18:39;;;;;;;6.37;4.95;;;;;;;0.25;83.57;95913.80;1705496;83;21155;-82
2021/01/06 07:24:09;;;;;;;6.67;5.53;;;;;;;0.37;83.54;95916.27;1825394;77;22918;-84
2021/01/06 07:26:46;;;;;;;5.22;4.72;;;;;;;0.37;83.53;95925.21;1812091;77;21138;-84
2021/01/06 07:29:15;;;;;;;5.30;4.40;;;;;;;0.41;83.54;95931.20;1787152;77;21345;-82
2021/01/06 07:31:59;;;;;;;5.30;4.80;;;;;;;0.47;83.55;95920.91;1834561;77;21314;-82
2021/01/06 07:34:52;;;;;;;5.47;4.97;;;;;;;0.53;83.52;95922.50;1836436;77;21131;-82
2021/01/06 07:37:41;;;;;;;5.60;4.87;;;;;;;0.60;83.48;95938.11;1824615;77;21123;-83
2021/01/06 07:40:32;;;;;;;7.47;5.53;;;;;;;0.61;83.52;95928.22;1832486;77;21095;-82
2021/01/06 07:43:16;;;;;;;5.60;5.10;;;;;;;0.65;83.57;95925.76;1808132;77;21155;-82
2021/01/06 07:45:52;;;;;;;5.45;4.95;;;;;;;0.73;83.52;95924.61;1828360;77;21125;-82
2021/01/06 07:48:29;;;;;;;6.35;5.53;;;;;;;0.79;83.50;95922.80;1827095;77;21245;-82
2021/01/06 07:51:15;;;;;;;7.08;5.58;;;;;;;0.83;83.58;95924.64;1832295;77;21117;-83
2021/01/06 07:53:56;;;;;;;7.67;6.35;;;;;;;0.88;83.56;95922.02;1822367;77;21265;-83
2021/01/06 07:56:36;;;;;;;7.67;5.90;;;;;;;0.90;83.61;95921.41;1834865;77;21079;-82
2021/01/06 07:59:02;;;;;;;6.15;5.37;;;;;;;0.98;83.63;95919.47;1826748;77;21130;-82
2021/01/06 08:01:53;;;;;;;6.65;5.80;;;;;;;1.08;83.52;95923.30;1792100;77;21334;-82
2021/01/06 08:04:28;;;;;;;6.75;5.80;;;;;;;1.14;83.49;95925.34;1823359;77;21208;-82
2021/01/06 08:06:59;;;;;;;7.45;5.95;;;;;;;1.20;83.43;95918.39;1820383;77;21141;-83
2021/01/06 08:09:31;;;;;;;7.00;5.87;;;;;;;1.22;83.43;95918.25;1821497;77;21099;-84
2021/01/06 08:11:59;;;;;;;6.70;5.80;;;;;;;1.23;83.52;95918.11;1780529;79;21135;-83
2021/01/06 08:14:30;;;;;;;6.40;5.70;;;;;;;1.27;83.51;95918.17;1791052;79;21232;-83
2021/01/06 08:17:06;;;;;;;7.83;6.47;;;;;;;1.31;83.46;95920.02;1760431;79;21136;-83
2021/01/06 08:19:42;;;;;;;6.47;5.87;;;;;;;1.33;83.40;95926.61;1748892;80;21103;-83
2021/01/06 08:22:30;;;;;;;8.33;6.72;;;;;;;1.38;83.43;95921.07;1775649;79;21149;-82
2021/01/06 08:25:11;;;;;;;5.87;5.30;;;;;;;1.45;83.53;95918.29;1761102;80;21372;-83
2021/01/06 08:27:38;;;;;;;6.62;5.85;;;;;;;1.49;83.37;95918.38;1786689;79;21354;-83
2021/01/06 08:30:28;;;;;;;6.75;5.72;;;;;;;1.53;83.41;95920.98;1820281;77;21135;-83
2021/01/06 08:33:06;;;;;;;6.40;4.95;;;;;;;1.57;83.40;95920.23;1828875;77;21111;-82
2021/01/06 08:35:37;;;;;;;8.63;7.20;;;;;;;1.57;83.02;95916.39;1829180;77;21330;-82
2021/01/06 08:38:03;;;;;;;7.75;7.05;;;;;;;1.50;83.07;95921.27;1826258;77;21066;-82
2021/01/06 08:40:38;;;;;;;7.03;5.95;;;;;;;1.56;83.36;95915.59;1796657;77;21350;-83
2021/01/06 08:43:12;;;;;;;6.85;6.15;;;;;;;1.66;83.41;95910.45;1817162;77;21130;-83
2021/01/06 08:45:58;;;;;;;8.35;6.08;;;;;;;1.71;83.38;95909.09;1824409;77;21350;-83
2021/01/06 08:48:32;;;;;;;6.60;5.90;;;;;;;1.78;83.35;95905.48;1782119;77;21834;-82
2021/01/06 08:51:11;;;;;;;6.03;5.35;;;;;;;1.77;83.20;95903.88;1823929;77;21115;-82
2021/01/06 08:53:39;;;;;;;6.45;5.50;;;;;;;1.80;83.10;95895.94;1798125;77;21250;-82
2021/01/06 08:56:11;;;;;;;6.87;5.85;;;;;;;1.79;82.98;95894.33;1769965;79;21132;-83
2021/01/06 08:58:46;;;;;;;7.93;5.53;;;;;;;1.82;83.08;95890.20;1784717;79;21258;-82
2021/01/06 09:01:33;;;;;;;6.25;5.50;;;;;;;1.86;83.19;95888.16;1726951;82;21082;-82
2021/01/06 09:04:17;;;;;;;6.78;5.50;;;;;;;1.87;83.17;95888.48;1778755;79;21127;-82
2021/01/06 09:06:56;;;;;;;7.60;6.03;;;;;;;1.86;83.15;95887.69;1768506;79;21248;-82
2021/01/06 09:09:43;;;;;;;6.75;5.15;;;;;;;1.84;83.18;95878.05;1788899;79;21079;-82
2021/01/06 09:12:55;;;;;;;6.05;4.60;;;;;;;1.91;83.07;95869.32;1762757;79;22874;-83
2021/01/06 09:15:53;;;;;;;5.58;4.97;;;;;;;1.92;83.11;95873.02;1742805;82;21092;-83
2021/01/06 09:18:24;;;;;;;54.48;28.23;;;;;;;1.99;83.11;95874.56;1737945;80;21240;-83
2021/01/06 09:21:29;;;;;;;129.25;59.03;;;;;;;2.07;83.14;95879.30;1736794;82;21154;-83
2021/01/06 09:24:02;;;;;;;66.80;34.73;;;;;;;2.09;83.04;95872.27;1747108;80;21122;-84
2021/01/06 09:26:29;;;;;;;21.33;12.60;;;;;;;2.16;82.89;95877.66;1705694;80;21122;-83
2021/01/06 09:29:08;;;;;;;12.18;8.95;;;;;;;2.28;82.78;95880.84;1744507;82;21130;-83
2021/01/06 09:31:47;;;;;;;12.58;9.50;;;;;;;2.38;82.68;95876.45;1740943;80;21091;-83
2021/01/06 09:34:15;;;;;;;11.05;8.68;;;;;;;2.50;82.51;95869.38;1732368;80;21129;-82
2021/01/06 09:36:41;;;;;;;8.45;7.15;;;;;;;2.61;82.45;95864.06;1735735;82;21098;-82
2021/01/06 09:39:15;;;;;;;7.70;6.90;;;;;;;2.69;82.37;95855.14;1717785;82;21122;-81
2021/01/06 09:41:53;;;;;;;6.05;5.22;;;;;;;2.77;82.27;95846.73;1822810;77;22690;-79
2021/01/06 09:44:19;;;;;;;6.97;5.72;;;;;;;2.75;82.11;95846.85;1821779;77;21103;-81
2021/01/06 09:47:23;;;;;;;5.65;4.40;;;;;;;2.72;81.90;95845.87;1811231;77;21359;-81
2021/01/06 09:49:54;;;;;;;5.78;4.83;;;;;;;2.70;81.82;95842.64;1813213;77;21248;-81
2021/01/06 09:52:28;;;;;;;6.15;5.35;;;;;;;2.68;81.72;95831.73;1804573;77;21127;-81
2021/01/06 09:54:56;;;;;;;7.08;5.22;;;;;;;2.67;81.69;95836.05;1790976;78;21111;-81
2021/01/06 09:57:22;;;;;;;6.78;5.10;;;;;;;2.65;81.70;95831.55;1806678;78;21063;-81
2021/01/06 09:59:51;;;;;;;6.53;5.87;;;;;;;2.64;81.72;95829.13;1795692;78;21126;-81
2021/01/06 10:02:30;;;;;;;7.25;5.53;;;;;;;2.64;81.70;95827.38;1817373;78;21110;-80
2021/01/06 10:05:01;;;;;;;13.53;9.38;;;;;;;2.67;81.70;95826.27;1811319;78;21119;-80
2021/01/06 10:07:41;;;;;;;62.93;40.60;;;;;;;2.70;81.50;95829.82;1799719;78;21275;-80
2021/01/06 10:10:20;;;;;;;153.80;80.57;;;;;;;2.74;81.45;95826.48;1817808;78;21129;-80
2021/01/06 10:13:33;;;;;;;90.28;64.72;;;;;;;2.86;81.54;95832.53;1778525;78;21163;-80
2021/01/06 10:16:12;;;;;;;77.75;55.33;;;;;;;3.01;81.33;95819.98;1805565;78;21099;-80
2021/01/06 10:19:13;;;;;;;54.03;38.23;;;;;;;3.16;81.22;95803.09;1833172;78;21055;-80
2021/01/06 10:21:50;;;;;;;45.98;31.75;;;;;;;3.26;81.08;95797.88;1808688;78;21099;-80
2021/01/06 10:24:43;;;;;;;43.33;27.70;;;;;;;3.31;80.91;95790.04;1802616;78;21127;-80
2021/01/06 10:27:26;;;;;;;40.15;28.92;;;;;;;3.39;80.75;95792.31;1798254;78;21115;-80
2021/01/06 10:29:54;;;;;;;39.67;26.15;;;;;;;3.46;80.51;95792.86;1805602;78;21138;-80
2021/01/06 10:32:44;;;;;;;30.20;21.05;;;;;;;3.46;80.40;95790.29;1813841;78;21231;-80
2021/01/06 10:35:27;;;;;;;18.60;13.62;;;;;;;3.48;80.34;95776.81;1819547;77;21127;-81
2021/01/06 10:37:53;;;;;;;18.07;12.98;;;;;;;3.46;80.33;95772.79;1800150;78;21246;-81
2021/01/06 10:40:36;;;;;;;27.73;19.35;;;;;;;3.41;80.26;95773.22;1807301;77;21098;-81
2021/01/06 10:43:38;;;;;;;77.80;50.25;;;;;;;3.39;80.28;95771.30;1798409;78;21440;-81
2021/01/06 10:46:48;;;;;;;109.67;74.17;;;;;;;3.43;80.04;95773.91;1793991;78;28268;-82
2021/01/06 10:49:23;;;;;;;123.15;75.95;;;;;;;3.45;79.68;95770.70;1813065;77;21382;-82
2021/01/06 10:52:09;;;;;;;93.58;61.92;;;;;;;3.42;79.45;95763.78;1812217;77;21086;-82
2021/01/06 10:54:56;;;;;;;76.85;55.55;;;;;;;3.50;79.69;95763.81;1815459;78;21101;-82
2021/01/06 10:57:48;;;;;;;82.78;59.93;;;;;;;3.63;79.87;95762.92;1770153;80;21418;-81
2021/01/06 11:00:21;;;;;;;66.33;48.20;;;;;;;3.70;79.74;95756.67;1816179;77;21113;-81
2021/01/06 11:03:19;;;;;;;52.73;40.15;;;;;;;3.71;79.82;95752.66;1774010;80;21473;-81
2021/01/06 11:06:19;;;;;;;24.90;20.45;;;;;;;3.76;79.71;95749.66;1814399;78;21062;-82
2021/01/06 11:09:24;;;;;;;8.90;7.10;;;;;;;3.73;79.37;95748.66;1810082;78;21212;-82
2021/01/06 11:12:20;;;;;;;8.75;6.05;;;;;;;3.66;79.26;95747.19;1765747;78;21507;-82
2021/01/06 11:15:09;;;;;;;12.80;7.95;;;;;;;3.55;79.37;95743.13;1808494;77;21239;-82
2021/01/06 11:17:38;;;;;;;54.77;37.83;;;;;;;3.50;79.60;95751.78;1815691;77;21062;-83
2021/01/06 11:20:26;;;;;;;70.37;49.42;;;;;;;3.46;79.65;95754.81;1773706;79;21121;-82
2021/01/06 11:26:30;;;;;;;34.08;25.68;;;;;;;3.50;79.63;95745.84;1778478;79;22683;-81
2021/01/06 11:29:24;;;;;;;63.68;45.52;;;;;;;3.44;79.53;95751.59;1775857;79;21436;-81
2021/01/06 11:32:12;;;;;;;101.35;75.90;;;;;;;3.38;79.66;95759.41;1767267;79;21121;-80
2021/01/06 11:34:52;;;;;;;126.90;91.22;;;;;;;3.35;79.73;95758.44;1810215;77;23144;-81
2021/01/06 11:37:31;;;;;;;120.05;82.10;;;;;;;3.19;79.48;95759.14;1811595;78;21096;-81
2021/01/06 11:39:57;;;;;;;105.60;72.37;;;;;;;3.02;79.61;95743.31;1817846;78;21123;-81
2021/01/06 11:42:41;;;;;;;113.85;80.28;;;;;;;2.86;79.77;95729.09;1814372;78;21089;-83
2021/01/06 11:45:13;;;;;;;100.78;71.55;;;;;;;2.76;79.89;95728.36;1739200;78;21129;-83
2021/01/06 11:47:58;;;;;;;98.15;68.62;;;;;;;2.68;80.07;95732.97;1816524;78;21155;-83
2021/01/06 11:50:40;;;;;;;102.95;72.85;;;;;;;2.63;80.26;95733.91;1814561;78;21121;-82
2021/01/06 11:53:28;;;;;;;162.18;97.45;;;;;;;2.57;80.48;95735.76;1821224;78;21355;-82
2021/01/06 11:56:20;;;;;;;151.93;101.62;;;;;;;2.59;80.74;95732.56;1806074;78;21121;-82
2021/01/06 11:59:19;;;;;;;123.40;81.73;;;;;;;2.55;80.72;95728.22;1805593;78;21224;-82
2021/01/06 12:02:10;;;;;;;107.70;73.75;;;;;;;2.48;80.85;95722.55;1781923;78;21218;-82
2021/01/06 12:05:09;;;;;;;83.70;57.75;;;;;;;2.40;80.87;95721.52;1811649;78;21336;-82
2021/01/06 12:08:13;;;;;;;79.17;58.68;;;;;;;2.37;80.97;95717.97;1787225;80;21162;-82
2021/01/06 12:11:12;;;;;;;84.67;59.33;;;;;;;2.37;81.06;95721.02;1779255;79;21842;-82
2021/01/06 12:13:46;;;;;;;84.60;57.78;;;;;;;2.37;81.14;95718.45;1762651;81;21165;-82
2021/01/06 12:16:20;;;;;;;50.70;34.43;;;;;;;2.38;81.26;95711.08;1773408;81;21340;-82
2021/01/06 12:19:04;;;;;;;18.92;13.80;;;;;;;2.33;81.26;95699.19;1756614;80;21122;-82
2021/01/06 12:21:52;;;;;;;8.15;6.80;;;;;;;2.25;81.31;95690.94;1757637;81;21122;-82
2021/01/06 12:24:32;;;;;;;7.92;6.60;;;;;;;2.22;81.40;95691.23;1758199;81;21129;-82
2021/01/06 12:27:25;;;;;;;9.75;6.67;;;;;;;2.19;81.50;95691.54;1750643;81;21133;-82
2021/01/06 12:30:00;;;;;;;9.30;6.55;;;;;;;2.18;81.57;95677.59;1757461;81;21421;-82
2021/01/06 12:32:53;;;;;;;6.75;5.85;;;;;;;2.16;81.54;95676.46;1753052;81;21747;-83
2021/01/06 12:38:25;;;;;;;7.30;6.50;;;;;;;2.12;81.78;95673.87;1677336;84;21287;-84